createdAt,value
2022-10-19T00:01:32.326Z,12.40
2022-10-19T00:06:40.821Z,11.60
2022-10-19T00:11:49.905Z,7.90
2022-10-19T00:16:58.529Z,8.40
2022-10-19T00:22:08.122Z,9.60
2022-10-19T00:32:24.809Z,11.60
2022-10-19T00:37:33.040Z,10.00
2022-10-19T00:42:40.093Z,11.30
2022-10-19T00:47:49.223Z,14.80
2022-10-19T00:52:57.448Z,8.50
2022-10-19T00:58:06.703Z,8.80
2022-10-19T01:03:16.029Z,9.10
2022-10-19T01:08:23.971Z,10.70
2022-10-19T01:13:46.770Z,11.20
2022-10-19T01:19:01.347Z,8.90
2022-10-19T01:24:52.110Z,9.80
2022-10-19T01:30:07.436Z,9.20
2022-10-19T01:35:23.204Z,7.00
2022-10-19T01:40:34.406Z,7.80
2022-10-19T01:45:48.342Z,7.80
2022-10-19T01:51:02.327Z,7.20
2022-10-19T01:56:13.836Z,5.40
2022-10-19T02:01:26.681Z,5.40
2022-10-19T02:06:34.875Z,5.40
2022-10-19T02:11:44.175Z,7.30
2022-10-19T02:17:03.432Z,4.80
2022-10-19T02:22:11.804Z,6.50
2022-10-19T02:27:20.597Z,6.20
2022-10-19T02:32:29.604Z,6.80
2022-10-19T02:37:37.705Z,4.50
2022-10-19T02:42:50.022Z,6.10
2022-10-19T02:48:01.739Z,5.10
2022-10-19T02:53:09.737Z,6.80
2022-10-19T02:58:17.718Z,5.90
2022-10-19T03:03:25.515Z,9.20
2022-10-19T03:08:33.547Z,5.10
2022-10-19T03:13:42.680Z,6.30
2022-10-19T03:18:51.914Z,4.50
2022-10-19T03:24:01.187Z,8.60
2022-10-19T03:29:09.273Z,7.70
2022-10-19T03:34:17.147Z,6.80
2022-10-19T03:39:25.201Z,6.30
2022-10-19T03:44:32.985Z,7.50
2022-10-19T03:49:40.389Z,9.30
2022-10-19T03:54:51.753Z,6.00
2022-10-19T03:59:59.611Z,5.80
2022-10-19T04:05:08.752Z,5.30
2022-10-19T04:10:16.742Z,7.10
2022-10-19T04:15:24.731Z,6.40
2022-10-19T04:20:31.955Z,10.90
2022-10-19T04:25:39.779Z,4.10
2022-10-19T04:30:47.577Z,4.60
2022-10-19T04:36:01.837Z,5.50
2022-10-19T04:41:11.688Z,4.90
2022-10-19T04:46:21.168Z,5.40
2022-10-19T04:51:29.858Z,4.30
2022-10-19T04:56:37.822Z,6.80
2022-10-19T05:01:47.260Z,4.70
2022-10-19T05:06:55.885Z,9.90
2022-10-19T05:12:04.220Z,6.10
2022-10-19T05:17:13.081Z,7.20
2022-10-19T05:22:21.156Z,4.40
2022-10-19T05:27:29.491Z,4.00
2022-10-19T05:32:37.510Z,7.10
2022-10-19T05:37:45.687Z,4.40
2022-10-19T05:42:53.571Z,3.40
2022-10-19T05:48:02.776Z,3.30
2022-10-19T05:53:10.846Z,4.00
2022-10-19T05:58:18.692Z,6.40
2022-10-19T06:03:27.891Z,1.20
2022-10-19T06:08:36.617Z,6.10
2022-10-19T06:13:46.511Z,2.80
2022-10-19T06:18:56.355Z,2.80
2022-10-19T06:24:06.829Z,2.50
2022-10-19T06:29:15.340Z,5.40
2022-10-19T06:34:23.571Z,1.70
2022-10-19T06:39:31.893Z,2.90
2022-10-19T06:44:38.873Z,2.00
2022-10-19T06:49:46.962Z,2.30
2022-10-19T06:54:54.964Z,4.10
2022-10-19T07:00:02.963Z,4.80
2022-10-19T07:05:11.790Z,2.60
2022-10-19T07:10:19.947Z,2.50
2022-10-19T07:15:27.984Z,2.10
2022-10-19T07:20:36.646Z,2.40
2022-10-19T07:25:44.925Z,3.60
2022-10-19T07:30:53.031Z,1.80
2022-10-19T07:36:07.006Z,3.20
2022-10-19T07:41:16.315Z,3.40
2022-10-19T07:46:26.558Z,1.90
2022-10-19T07:51:34.787Z,3.40
2022-10-19T07:56:42.919Z,2.70
2022-10-19T08:01:50.821Z,1.50
2022-10-19T08:06:58.719Z,5.80
2022-10-19T08:12:11.162Z,6.40
2022-10-19T08:17:22.842Z,3.30
2022-10-19T08:22:30.243Z,2.30
2022-10-19T08:27:38.171Z,2.90
2022-10-19T08:32:46.104Z,49.50
2022-10-19T08:37:54.076Z,86.10
2022-10-19T08:43:12.358Z,206.80
2022-10-19T08:48:29.335Z,250.10
2022-10-19T08:53:45.622Z,212.90
2022-10-19T08:59:07.389Z,196.60
2022-10-19T09:04:22.519Z,130.20
2022-10-19T09:09:34.757Z,131.40
2022-10-19T09:14:53.918Z,95.90
2022-10-19T09:20:03.529Z,120.70
2022-10-19T09:25:20.327Z,150.90
2022-10-19T09:30:27.835Z,92.70
2022-10-19T09:35:39.764Z,79.40
2022-10-19T09:40:48.696Z,29.40
2022-10-19T09:46:01.154Z,25.90
2022-10-19T09:51:16.837Z,38.80
2022-10-19T09:56:25.654Z,35.10
2022-10-19T10:01:41.853Z,26.10
2022-10-19T10:06:51.436Z,14.30
2022-10-19T10:12:01.036Z,22.80
2022-10-19T10:17:16.405Z,29.00
2022-10-19T10:22:32.982Z,28.00
2022-10-19T10:27:41.624Z,34.40
2022-10-19T10:32:53.034Z,38.70
2022-10-19T10:38:10.633Z,15.20
2022-10-19T10:43:22.471Z,11.80
2022-10-19T10:48:33.815Z,13.50
2022-10-19T10:53:43.629Z,18.00
2022-10-19T10:58:55.796Z,12.80
2022-10-19T11:09:18.079Z,11.20
2022-10-19T11:14:34.754Z,29.30
2022-10-19T11:19:45.715Z,32.60
2022-10-19T11:25:05.594Z,12.40
2022-10-19T11:30:16.245Z,28.60
2022-10-19T11:35:38.023Z,31.80
2022-10-19T11:46:27.215Z,32.90
2022-10-19T11:51:41.196Z,18.20
2022-10-19T11:57:11.492Z,7.10
2022-10-19T12:02:42.153Z,5.00
2022-10-19T12:08:01.798Z,12.60
2022-10-19T12:13:13.921Z,60.90
2022-10-19T12:23:34.713Z,104.40
2022-10-19T12:28:45.404Z,138.40
2022-10-19T12:34:00.850Z,86.90
2022-10-19T12:39:14.543Z,67.30
2022-10-19T12:44:39.406Z,80.00
2022-10-19T12:49:51.314Z,39.80
2022-10-19T12:55:12.017Z,39.10
2022-10-19T13:00:26.643Z,72.70
2022-10-19T13:05:35.612Z,62.70
2022-10-19T13:10:42.900Z,44.50
2022-10-19T13:15:58.051Z,32.80
2022-10-19T13:21:08.379Z,25.60
2022-10-19T13:26:35.059Z,55.40
2022-10-19T13:31:42.085Z,69.10
2022-10-19T13:42:29.718Z,56.30
2022-10-19T13:47:42.522Z,53.00
2022-10-19T13:53:08.780Z,35.70
2022-10-19T13:58:34.603Z,25.50
2022-10-19T14:03:57.475Z,37.00
2022-10-19T14:09:30.329Z,32.20
2022-10-19T14:14:43.857Z,45.60
2022-10-19T14:19:53.000Z,26.00
2022-10-19T14:25:08.093Z,20.00
2022-10-19T14:30:26.523Z,11.70
2022-10-19T14:35:37.369Z,6.70
2022-10-19T14:40:44.988Z,5.50
2022-10-19T14:46:13.555Z,7.80
2022-10-19T14:51:31.000Z,9.50
2022-10-19T14:56:54.390Z,6.00
2022-10-19T15:02:06.438Z,4.90
2022-10-19T15:07:22.440Z,2.80
2022-10-19T15:12:36.902Z,3.10
2022-10-19T15:17:54.307Z,4.70
2022-10-19T15:23:02.145Z,6.00
2022-10-19T15:28:36.151Z,4.60
2022-10-19T15:33:49.932Z,4.50
2022-10-19T15:39:24.649Z,4.90
2022-10-19T15:44:35.038Z,4.90
2022-10-19T15:50:01.131Z,6.60
2022-10-19T15:55:09.518Z,7.10
2022-10-19T16:00:20.664Z,49.80
2022-10-19T16:05:28.009Z,51.50
2022-10-19T16:10:35.211Z,56.70
2022-10-19T16:15:42.369Z,19.10
2022-10-19T16:20:49.762Z,21.40
2022-10-19T16:25:56.836Z,65.50
2022-10-19T16:31:04.227Z,31.20
2022-10-19T16:36:13.379Z,10.80
2022-10-19T16:41:20.559Z,3.90
2022-10-19T16:46:28.764Z,4.50
2022-10-19T16:51:40.294Z,5.30
2022-10-19T16:56:49.352Z,9.70
2022-10-19T17:01:56.884Z,7.10
2022-10-19T17:07:04.508Z,5.70
2022-10-19T17:12:11.999Z,2.00
2022-10-19T17:17:18.910Z,2.30
2022-10-19T17:22:25.984Z,3.80
2022-10-19T17:27:33.374Z,2.10
2022-10-19T17:32:40.897Z,3.50
2022-10-19T17:37:48.282Z,4.40
2022-10-19T17:42:55.889Z,5.70
2022-10-19T17:48:02.964Z,5.40
2022-10-19T17:53:10.237Z,5.20
2022-10-19T17:58:17.237Z,4.50
2022-10-19T18:03:24.777Z,4.20
2022-10-19T18:08:32.962Z,4.30
2022-10-19T18:13:40.959Z,3.10
2022-10-19T18:18:50.472Z,3.40
2022-10-19T18:24:00.005Z,3.00
2022-10-19T18:29:14.984Z,4.20
2022-10-19T18:34:23.915Z,3.90
2022-10-19T18:39:31.236Z,4.50
2022-10-19T18:44:38.371Z,5.00
2022-10-19T18:49:45.600Z,6.60
2022-10-19T18:54:52.854Z,16.10
2022-10-19T19:00:00.098Z,14.20
2022-10-19T19:05:07.781Z,6.30
2022-10-19T19:10:15.013Z,7.70
2022-10-19T19:15:22.212Z,8.20
2022-10-19T19:20:29.385Z,6.70
2022-10-19T19:25:36.469Z,4.20
2022-10-19T19:30:45.810Z,3.80
2022-10-19T19:35:52.951Z,5.10
2022-10-19T19:41:00.190Z,4.00
2022-10-19T19:46:11.422Z,6.80
2022-10-19T19:51:20.831Z,4.70
2022-10-19T19:56:29.162Z,28.30
2022-10-19T20:01:38.270Z,17.10
2022-10-19T20:06:45.786Z,9.90
2022-10-19T20:11:52.804Z,6.70
2022-10-19T20:17:00.086Z,5.50
2022-10-19T20:22:07.855Z,3.00
2022-10-19T20:27:14.970Z,3.20
2022-10-19T20:32:21.960Z,2.30
2022-10-19T20:37:30.569Z,2.40
2022-10-19T20:42:38.176Z,3.80
2022-10-19T20:47:45.515Z,2.70
2022-10-19T20:52:52.379Z,3.00
2022-10-19T20:57:59.492Z,3.70
2022-10-19T21:03:06.303Z,2.60
2022-10-19T21:08:16.043Z,3.10
2022-10-19T21:13:23.099Z,3.10
2022-10-19T21:18:30.067Z,5.10
2022-10-19T21:23:37.157Z,2.20
2022-10-19T21:28:47.144Z,5.40
2022-10-19T21:33:55.279Z,9.80
2022-10-19T21:39:02.345Z,8.50
2022-10-19T21:44:09.631Z,9.30
2022-10-19T21:49:17.082Z,6.60
2022-10-19T21:54:26.540Z,6.60
2022-10-19T21:59:34.061Z,6.50
2022-10-19T22:04:40.820Z,24.10
2022-10-19T22:09:48.106Z,10.90
2022-10-19T22:14:55.137Z,6.00
2022-10-19T22:20:02.185Z,5.80
2022-10-19T22:25:09.956Z,5.00
2022-10-19T22:30:17.299Z,5.40
2022-10-19T22:35:24.268Z,3.40
2022-10-19T22:40:31.203Z,6.10
2022-10-19T22:45:38.307Z,2.80
2022-10-19T22:50:45.304Z,4.50
2022-10-19T22:55:52.711Z,2.80
2022-10-19T23:01:06.187Z,3.00
2022-10-19T23:06:15.718Z,5.00
2022-10-19T23:11:22.770Z,4.70
2022-10-19T23:16:31.178Z,3.30
2022-10-19T23:21:38.127Z,2.10
2022-10-19T23:26:45.058Z,3.00
2022-10-19T23:31:52.340Z,2.60
2022-10-19T23:36:59.597Z,3.50
2022-10-19T23:42:06.940Z,3.20
2022-10-19T23:47:14.017Z,2.10
2022-10-19T23:52:20.847Z,2.30
2022-10-19T23:57:27.764Z,2.90
